메인 페이지
METAR-TAF:

METAR-TAF

공항 :

털사, 오클라호마, 미국

위도: 36-11-51N, 경도: 095-53-11W, 고도: 206m

현재 날씨관측

예보는 29분 전, 06:53시(UTC)에 발표되었습니다.
동북동4kt
온도 19°C
습도 88%
기압 1017 hPa
시정: 16.1km
고도 2100ft 상공 흐림

METAR: KTUL 230653Z 07004KT 10SM OVC021 19/17 A3003 RMK AO2 SLP163 T01890167

시각: 02:22 (07:22 UTC)

예보

예보는 2 시간 2분 전, 05:20시(UTC)에 발표되었습니다.
예보 대상 시간: 23일 06시부터 24일 06시까지 (UTC)
5kt
시정: 10km
고도 2000ft 상공 흐림
23일 0900시부터 (UTC)
3kt
시정: 6.4km
고도 700ft 상공 흐림
박무
23일 1500시부터 (UTC)
북북동7kt
시정: 10km
고도 1500ft 상공 흐림
23일 2100시부터 (UTC)
8kt
시정: 10km
고도 2500ft 상공 흐림
24일 0000시부터 (UTC)
동남동6kt
시정: 10km
고도 5000ft 상공 흐림

TAF: KTUL 230520Z 2306/2406 10005KT P6SM OVC020 FM230900 01003KT 4SM BR OVC007 FM231500 03007KT P6SM OVC015 FM232100 09008KT P6SM OVC025 FM240000 12006KT P6SM OVC050

4,000개 이상의 공항 관측 자료 및 예보 (METAR 및 TAF 보고).

지도상에서 검색 가능한 기상관측소가 노란 점과 빨간 점으로 표시되어 있습니다.

기상관측소 명을 보려면 표시 위로 마우스를 이동하세요.

날씨 관측과 예보를 보려면 클릭하세요.

지도 변경 : 확대하려면 엑스 표시가 있는 녹색 버튼, 축소하려면 빼기 표시가 있는 녹색 버튼, 다음 페이지의 지도를 보려면 녹색 화살표를 클릭하세요.


METAR-TAF: